Time;durP1;ratioP1;P1;durP2;ratioP2;P2;SDS_P1;SDS_P2;PMS_P1;PMS_P2;Temp;Humidity;BMP_temperature;BMP_pressure;BME280_temperature;BME280_humidity;BME280_pressure;Samples;Min_cycle;Max_cycle;Signal;HPM_P1;HPM_P2
2021/08/29 00:01:10;;;;;;;7.87;5.90;;;17.50;99.90;;;;;;4981334;28;20464;-82
2021/08/29 00:03:44;;;;;;;6.60;5.90;;;17.50;99.90;;;;;;4971754;28;20510;-82
2021/08/29 00:06:13;;;;;;;6.27;5.67;;;17.50;99.90;;;;;;5001468;28;20803;-84
2021/08/29 00:08:40;;;;;;;6.93;5.87;;;17.50;99.90;;;;;;4994649;28;20995;-83
2021/08/29 00:11:09;;;;;;;7.33;5.80;;;17.40;99.90;;;;;;4992773;28;20475;-84
2021/08/29 00:13:38;;;;;;;6.00;5.50;;;17.40;99.90;;;;;;4988428;28;20466;-83
2021/08/29 00:16:05;;;;;;;7.20;6.10;;;17.40;99.90;;;;;;4978761;28;20825;-84
2021/08/29 00:18:34;;;;;;;6.97;6.27;;;17.40;99.90;;;;;;4984977;28;20564;-84
2021/08/29 00:21:01;;;;;;;8.67;6.27;;;17.40;99.90;;;;;;4975707;28;20808;-85
2021/08/29 00:23:28;;;;;;;6.80;5.70;;;17.50;99.90;;;;;;4976762;28;20479;-84
2021/08/29 00:25:55;;;;;;;7.00;5.93;;;17.40;99.90;;;;;;4965288;28;20888;-83
2021/08/29 00:28:21;;;;;;;8.37;6.07;;;17.40;99.90;;;;;;4981359;28;20478;-84
2021/08/29 00:30:48;;;;;;;6.73;6.13;;;17.40;99.90;;;;;;4992203;28;20451;-84
2021/08/29 00:33:17;;;;;;;6.53;5.87;;;17.50;99.90;;;;;;4989428;28;20463;-84
2021/08/29 00:35:44;;;;;;;7.63;5.60;;;17.50;99.90;;;;;;4994636;28;20470;-84
2021/08/29 00:38:11;;;;;;;6.93;5.90;;;17.50;99.90;;;;;;4995477;28;20447;-83
2021/08/29 00:40:38;;;;;;;7.60;5.50;;;17.50;99.90;;;;;;4980897;28;20427;-84
2021/08/29 00:43:04;;;;;;;5.00;4.50;;;17.50;99.90;;;;;;4985431;28;21041;-84
2021/08/29 00:45:31;;;;;;;5.23;4.73;;;17.50;99.90;;;;;;5001806;28;20485;-81
2021/08/29 00:48:01;;;;;;;4.63;4.10;;;17.50;99.90;;;;;;5003710;28;21068;-81
2021/08/29 00:50:28;;;;;;;5.13;4.30;;;17.40;99.90;;;;;;4989162;28;20465;-82
2021/08/29 00:52:55;;;;;;;6.07;4.60;;;17.40;99.90;;;;;;4977467;28;20460;-84
2021/08/29 00:55:22;;;;;;;6.70;5.83;;;17.30;99.90;;;;;;4982577;28;20561;-84
2021/08/29 00:57:49;;;;;;;6.40;4.43;;;17.30;99.90;;;;;;4976992;28;20474;-83
2021/08/29 01:00:16;;;;;;;5.10;4.60;;;17.30;99.90;;;;;;4998241;28;20519;-84
2021/08/29 01:02:43;;;;;;;4.63;3.70;;;17.30;99.90;;;;;;5001959;28;20459;-82
2021/08/29 01:05:17;;;;;;;5.37;4.70;;;17.30;99.90;;;;;;4974675;28;20983;-85
2021/08/29 01:08:01;;;;;;;7.30;4.60;;;17.30;99.90;;;;;;4993821;28;21055;-85
2021/08/29 01:10:41;;;;;;;4.93;4.03;;;17.30;99.90;;;;;;4992258;28;20447;-84
2021/08/29 01:13:17;;;;;;;5.23;4.03;;;17.30;99.90;;;;;;4993658;28;20458;-81
2021/08/29 01:15:47;;;;;;;5.80;3.93;;;17.30;99.90;;;;;;4987716;28;20467;-83
2021/08/29 01:18:19;;;;;;;6.50;4.60;;;17.20;99.90;;;;;;4980244;28;20792;-82
2021/08/29 01:20:56;;;;;;;5.37;4.30;;;17.10;99.90;;;;;;4989430;28;20451;-79
2021/08/29 01:23:24;;;;;;;7.23;4.13;;;17.10;99.90;;;;;;4982285;28;20519;-84
2021/08/29 01:25:57;;;;;;;4.17;3.77;;;17.00;99.90;;;;;;4948523;28;20483;-83
2021/08/29 01:28:35;;;;;;;6.03;4.97;;;17.00;99.90;;;;;;4984013;28;20451;-84
2021/08/29 01:31:02;;;;;;;6.30;4.30;;;17.00;99.90;;;;;;4983944;28;20455;-84
2021/08/29 01:33:30;;;;;;;4.63;4.23;;;17.00;99.90;;;;;;4972939;28;20451;-83
2021/08/29 01:35:56;;;;;;;5.20;4.70;;;17.00;99.90;;;;;;4953780;28;20464;-82
2021/08/29 01:38:23;;;;;;;7.60;4.83;;;17.00;99.90;;;;;;4971885;28;20450;-82
2021/08/29 01:40:51;;;;;;;4.57;4.07;;;17.00;99.90;;;;;;4971970;28;20968;-83
2021/08/29 01:43:17;;;;;;;4.60;4.20;;;17.00;99.90;;;;;;4971919;28;21274;-81
2021/08/29 01:45:44;;;;;;;5.80;4.60;;;17.10;99.90;;;;;;4963203;28;21203;-84
2021/08/29 01:48:12;;;;;;;6.23;4.70;;;17.10;99.90;;;;;;4985696;28;20539;-83
2021/08/29 01:50:40;;;;;;;6.30;5.30;;;17.10;99.90;;;;;;4941796;28;20467;-82
2021/08/29 01:53:07;;;;;;;10.27;5.20;;;17.00;99.90;;;;;;4926991;28;20458;-82
2021/08/29 01:55:34;;;;;;;6.23;5.10;;;17.00;99.90;;;;;;4895452;28;20463;-84
2021/08/29 01:58:00;;;;;;;5.67;4.83;;;17.00;99.90;;;;;;4923102;28;20486;-83
2021/08/29 02:00:27;;;;;;;6.00;5.00;;;17.00;99.90;;;;;;4928896;28;20489;-81
2021/08/29 02:02:54;;;;;;;7.10;5.37;;;17.00;99.90;;;;;;4931104;28;20456;-83
2021/08/29 02:05:22;;;;;;;11.13;6.83;;;17.00;99.90;;;;;;4925950;28;20535;-83
2021/08/29 02:07:50;;;;;;;7.57;5.77;;;17.00;99.90;;;;;;4920739;28;21004;-84
2021/08/29 02:10:22;;;;;;;7.37;6.00;;;17.00;99.90;;;;;;4919369;28;20455;-83
2021/08/29 02:13:06;;;;;;;6.60;5.67;;;17.00;99.90;;;;;;4918851;28;20498;-81
2021/08/29 02:15:38;;;;;;;7.57;6.10;;;17.00;99.90;;;;;;4921822;28;20467;-87
2021/08/29 02:18:11;;;;;;;8.80;6.30;;;17.00;99.90;;;;;;4937929;28;21493;-86
2021/08/29 02:20:38;;;;;;;8.77;5.57;;;17.00;99.90;;;;;;4944593;28;20976;-85
2021/08/29 02:23:06;;;;;;;7.53;6.10;;;16.90;99.90;;;;;;4947638;28;20459;-86
2021/08/29 02:25:33;;;;;;;6.80;6.20;;;17.00;99.90;;;;;;4929298;28;20498;-86
2021/08/29 02:28:00;;;;;;;8.83;6.20;;;16.90;99.90;;;;;;4947802;28;20490;-85
2021/08/29 02:30:27;;;;;;;7.30;5.80;;;16.90;99.90;;;;;;4947408;28;21194;-88
2021/08/29 02:32:55;;;;;;;6.97;6.27;;;17.00;99.90;;;;;;4945409;28;21074;-87
2021/08/29 02:35:22;;;;;;;6.83;6.00;;;17.00;99.90;;;;;;4947148;28;20476;-86
2021/08/29 02:37:50;;;;;;;12.10;5.50;;;16.90;99.90;;;;;;4944868;28;20988;-87
2021/08/29 02:40:19;;;;;;;7.87;6.07;;;16.90;99.90;;;;;;4945129;28;20502;-86
2021/08/29 02:42:47;;;;;;;7.23;6.23;;;16.90;99.90;;;;;;4946347;28;20481;-85
2021/08/29 02:45:14;;;;;;;6.67;5.80;;;16.80;99.90;;;;;;4943456;28;20486;-86
2021/08/29 02:47:41;;;;;;;6.67;5.93;;;16.80;99.90;;;;;;4944067;28;21343;-85
2021/08/29 02:50:09;;;;;;;6.70;5.77;;;16.80;99.90;;;;;;4949853;28;20556;-85
2021/08/29 02:52:40;;;;;;;8.53;6.40;;;16.80;99.90;;;;;;4996904;28;20451;-87
2021/08/29 02:55:08;;;;;;;7.40;5.80;;;16.80;99.90;;;;;;4999279;28;20562;-86
2021/08/29 02:57:36;;;;;;;7.13;5.53;;;16.80;99.90;;;;;;4993649;28;20479;-87
2021/08/29 03:00:04;;;;;;;7.63;6.40;;;16.80;99.90;;;;;;4999066;28;20459;-86
2021/08/29 03:02:31;;;;;;;7.03;5.33;;;16.80;99.90;;;;;;5007261;28;20555;-86
2021/08/29 03:04:58;;;;;;;7.23;5.70;;;16.80;99.90;;;;;;4980391;28;20480;-87
2021/08/29 03:07:25;;;;;;;7.00;6.30;;;16.80;99.90;;;;;;5004331;28;20490;-87
2021/08/29 03:09:52;;;;;;;8.80;5.17;;;16.80;99.90;;;;;;4998713;28;20487;-88
2021/08/29 03:12:20;;;;;;;5.73;5.23;;;16.80;99.90;;;;;;5014619;28;20672;-90
2021/08/29 03:14:48;;;;;;;9.43;6.03;;;16.70;99.90;;;;;;4999423;28;20439;-90
2021/08/29 03:17:15;;;;;;;8.60;6.83;;;16.70;99.90;;;;;;5016501;28;20479;-89
2021/08/29 03:19:44;;;;;;;7.13;5.80;;;16.70;99.90;;;;;;5016362;28;20457;-89
2021/08/29 03:22:12;;;;;;;6.23;5.23;;;16.70;99.90;;;;;;5015541;28;20457;-87
2021/08/29 03:24:39;;;;;;;5.30;4.80;;;16.70;99.90;;;;;;5007664;28;20479;-86
2021/08/29 03:27:06;;;;;;;5.93;5.00;;;16.70;99.90;;;;;;5001128;28;20500;-87
2021/08/29 03:29:33;;;;;;;11.23;5.50;;;16.70;99.90;;;;;;4991038;28;20477;-88
2021/08/29 03:32:00;;;;;;;4.80;4.33;;;16.70;99.90;;;;;;4992262;28;20455;-87
2021/08/29 03:34:28;;;;;;;4.97;4.40;;;16.70;99.90;;;;;;4980991;28;20460;-86
2021/08/29 03:36:56;;;;;;;5.27;4.70;;;16.70;99.90;;;;;;5007212;28;20507;-87
2021/08/29 03:39:26;;;;;;;5.80;4.83;;;16.60;99.90;;;;;;5010881;28;20459;-87
2021/08/29 03:41:56;;;;;;;5.57;5.07;;;16.70;99.90;;;;;;5002575;28;20486;-88
2021/08/29 03:44:24;;;;;;;6.30;5.70;;;16.60;99.90;;;;;;4982996;28;20963;-86
2021/08/29 03:46:52;;;;;;;7.67;5.60;;;16.50;99.90;;;;;;4961601;28;21884;-87
2021/08/29 03:49:19;;;;;;;5.87;5.27;;;16.50;99.90;;;;;;4959123;28;20503;-84
2021/08/29 03:51:48;;;;;;;5.27;4.43;;;16.50;99.90;;;;;;4965827;28;20454;-88
2021/08/29 03:54:14;;;;;;;6.83;5.00;;;16.50;99.90;;;;;;4949458;28;20460;-85
2021/08/29 03:56:41;;;;;;;6.93;5.00;;;16.50;99.90;;;;;;5005298;28;20471;-89
2021/08/29 03:59:08;;;;;;;7.00;5.33;;;16.50;99.90;;;;;;5007039;28;20479;-89
2021/08/29 04:01:35;;;;;;;6.10;5.10;;;16.50;99.90;;;;;;4990808;28;20452;-88
2021/08/29 04:04:02;;;;;;;6.97;5.33;;;16.50;99.90;;;;;;5001265;28;20455;-89
2021/08/29 04:06:33;;;;;;;6.27;5.50;;;16.40;99.90;;;;;;5009936;28;20483;-89
2021/08/29 04:09:04;;;;;;;7.83;5.37;;;16.50;99.90;;;;;;4998198;28;20494;-87
2021/08/29 04:11:31;;;;;;;6.83;5.10;;;16.50;99.90;;;;;;5013864;28;20474;-87
2021/08/29 04:13:59;;;;;;;6.20;5.13;;;16.50;99.90;;;;;;4991806;28;20466;-88
2021/08/29 04:16:27;;;;;;;6.80;5.57;;;16.50;99.90;;;;;;4990359;28;20543;-87
2021/08/29 04:18:56;;;;;;;5.70;5.10;;;16.50;99.90;;;;;;5005347;28;20445;-88
2021/08/29 04:21:24;;;;;;;6.50;5.30;;;16.50;99.90;;;;;;5010696;28;20455;-88
2021/08/29 04:23:52;;;;;;;9.33;5.07;;;16.50;99.90;;;;;;5009607;28;20503;-87
2021/08/29 04:26:19;;;;;;;7.90;5.17;;;16.50;99.90;;;;;;4993908;28;20496;-86
2021/08/29 04:28:46;;;;;;;6.33;5.70;;;16.50;99.90;;;;;;4977203;28;20479;-86
2021/08/29 04:31:18;;;;;;;7.17;5.53;;;16.50;99.90;;;;;;4975711;28;20455;-87
2021/08/29 04:33:45;;;;;;;6.27;5.57;;;16.50;99.90;;;;;;4982029;28;20459;-87
2021/08/29 04:36:11;;;;;;;6.20;5.60;;;16.50;99.90;;;;;;5007867;28;20560;-87
2021/08/29 04:38:38;;;;;;;7.67;5.40;;;16.50;99.90;;;;;;5008255;28;20826;-87
2021/08/29 04:41:05;;;;;;;9.00;5.70;;;16.50;99.90;;;;;;5004958;28;20456;-88
2021/08/29 04:43:32;;;;;;;6.93;6.07;;;16.50;99.90;;;;;;4972851;28;20462;-88
2021/08/29 04:45:59;;;;;;;8.10;6.23;;;16.50;99.90;;;;;;4968066;28;20487;-87
2021/08/29 04:48:26;;;;;;;7.50;6.67;;;16.50;99.90;;;;;;4952822;28;21537;-86
2021/08/29 04:50:52;;;;;;;5.60;5.10;;;16.50;99.90;;;;;;4937171;28;20467;-86
2021/08/29 04:53:19;;;;;;;8.53;5.63;;;16.40;99.90;;;;;;4949170;28;21133;-88
2021/08/29 04:55:46;;;;;;;6.60;6.00;;;16.50;99.90;;;;;;4965795;28;20460;-87
2021/08/29 04:58:13;;;;;;;6.90;6.20;;;16.40;99.90;;;;;;4990215;28;20463;-87
2021/08/29 05:00:39;;;;;;;7.10;6.40;;;16.40;99.90;;;;;;4994088;28;20544;-87
2021/08/29 05:03:07;;;;;;;6.90;5.20;;;16.40;99.90;;;;;;4986867;28;20451;-87
2021/08/29 05:05:34;;;;;;;9.63;6.97;;;16.40;99.90;;;;;;4993603;28;20475;-87
2021/08/29 05:08:01;;;;;;;10.10;6.60;;;16.40;99.90;;;;;;5007860;28;20473;-87
2021/08/29 05:10:27;;;;;;;6.97;6.27;;;16.40;99.90;;;;;;5007618;28;20465;-87
2021/08/29 05:12:55;;;;;;;10.03;6.03;;;16.40;99.90;;;;;;5016634;28;20529;-88
2021/08/29 05:15:22;;;;;;;10.57;7.47;;;16.40;99.90;;;;;;4990139;28;20979;-86
2021/08/29 05:17:49;;;;;;;9.83;5.90;;;16.40;99.90;;;;;;5003233;28;20479;-88
2021/08/29 05:20:15;;;;;;;7.33;5.83;;;16.40;99.90;;;;;;4980212;28;20459;-86
2021/08/29 05:22:42;;;;;;;5.83;5.20;;;16.50;99.90;;;;;;4953920;28;20456;-85
2021/08/29 05:25:09;;;;;;;8.17;5.40;;;16.50;99.90;;;;;;4950849;28;20494;-83
2021/08/29 05:27:36;;;;;;;7.63;4.80;;;16.50;99.90;;;;;;4958280;28;20602;-86
2021/08/29 05:30:03;;;;;;;9.33;4.73;;;16.50;99.90;;;;;;4946141;28;20461;-88
2021/08/29 05:32:30;;;;;;;6.97;5.53;;;16.60;99.90;;;;;;4990827;28;20467;-91
2021/08/29 05:34:57;;;;;;;6.30;5.20;;;16.60;99.90;;;;;;5015010;28;20447;-87
2021/08/29 05:37:24;;;;;;;9.17;6.07;;;16.60;99.90;;;;;;5004174;28;20534;-89
2021/08/29 05:39:51;;;;;;;11.90;5.87;;;16.60;99.90;;;;;;5000917;28;20440;-88
2021/08/29 05:42:18;;;;;;;7.70;5.30;;;16.60;99.90;;;;;;4993702;28;20490;-86
2021/08/29 05:44:45;;;;;;;6.60;4.60;;;16.60;99.90;;;;;;4989772;28;20463;-86
2021/08/29 05:47:11;;;;;;;8.30;5.50;;;16.50;99.90;;;;;;5007862;28;20463;-87
2021/08/29 05:49:38;;;;;;;6.97;4.70;;;16.50;99.90;;;;;;5007432;28;20465;-88
2021/08/29 05:52:06;;;;;;;7.13;4.93;;;16.50;99.90;;;;;;5003342;28;20455;-87
2021/08/29 05:54:32;;;;;;;7.37;4.37;;;16.50;99.90;;;;;;5005411;28;20479;-87
2021/08/29 05:56:59;;;;;;;5.60;5.07;;;16.40;99.90;;;;;;5001128;28;20530;-89
2021/08/29 05:59:26;;;;;;;7.60;4.73;;;16.50;99.90;;;;;;4990811;28;20456;-86
2021/08/29 06:01:53;;;;;;;5.70;4.47;;;16.50;99.90;;;;;;5004947;28;20451;-86
2021/08/29 06:04:19;;;;;;;6.47;4.53;;;16.50;99.90;;;;;;5012624;28;20459;-87
2021/08/29 06:06:46;;;;;;;7.20;4.40;;;16.50;99.90;;;;;;5017172;28;20488;-89
2021/08/29 06:09:13;;;;;;;6.20;4.33;;;16.50;99.90;;;;;;5008080;28;20521;-87
2021/08/29 06:11:40;;;;;;;6.80;4.77;;;16.50;99.90;;;;;;5036978;28;20452;-87
2021/08/29 06:14:07;;;;;;;9.40;4.73;;;16.60;99.90;;;;;;5012106;28;20449;-86
2021/08/29 06:16:34;;;;;;;8.17;4.93;;;16.60;99.90;;;;;;5011375;28;20547;-88
2021/08/29 06:19:02;;;;;;;7.60;5.00;;;16.50;99.90;;;;;;5012352;28;20491;-89
2021/08/29 06:21:29;;;;;;;11.60;5.07;;;16.60;99.90;;;;;;4991196;28;20453;-88
2021/08/29 06:23:55;;;;;;;6.53;4.90;;;16.70;99.90;;;;;;5007061;28;20455;-90
2021/08/29 06:26:22;;;;;;;6.83;4.50;;;16.60;99.90;;;;;;4994005;28;20494;-87
2021/08/29 06:28:48;;;;;;;6.40;4.90;;;16.70;99.90;;;;;;4993097;28;20456;-88
2021/08/29 06:31:15;;;;;;;10.30;4.50;;;16.60;99.90;;;;;;4992475;28;20453;-88
2021/08/29 06:33:42;;;;;;;10.50;5.10;;;16.60;99.90;;;;;;5002230;28;20453;-87
2021/08/29 06:36:09;;;;;;;8.90;4.73;;;16.60;99.90;;;;;;4988317;28;20487;-87
2021/08/29 06:38:35;;;;;;;7.20;4.40;;;16.60;99.90;;;;;;5008613;28;20911;-88
2021/08/29 06:41:02;;;;;;;8.20;5.67;;;16.60;99.90;;;;;;5003248;28;20463;-88
2021/08/29 06:43:29;;;;;;;8.70;4.93;;;16.60;99.90;;;;;;4997739;28;20479;-86
2021/08/29 06:45:56;;;;;;;7.87;5.00;;;16.60;99.90;;;;;;4988602;28;20479;-85
2021/08/29 06:48:23;;;;;;;9.67;6.20;;;16.60;99.90;;;;;;5003346;28;20448;-87
2021/08/29 06:50:50;;;;;;;5.80;5.20;;;16.60;99.90;;;;;;4999348;28;20534;-88
2021/08/29 06:53:16;;;;;;;8.00;4.80;;;16.60;99.90;;;;;;5004079;28;20471;-88
2021/08/29 06:55:43;;;;;;;9.30;5.43;;;16.60;99.90;;;;;;4999949;28;20450;-88
2021/08/29 06:58:10;;;;;;;7.97;5.13;;;16.60;99.90;;;;;;5008040;28;20534;-88
2021/08/29 07:00:37;;;;;;;5.53;4.67;;;16.60;99.90;;;;;;5012951;28;20454;-88
2021/08/29 07:03:04;;;;;;;6.97;4.40;;;16.60;99.90;;;;;;5026516;28;20526;-87
2021/08/29 07:05:31;;;;;;;7.97;4.90;;;16.60;99.90;;;;;;5008737;28;20483;-88
2021/08/29 07:07:57;;;;;;;6.50;5.00;;;16.60;99.90;;;;;;5003308;28;20475;-86
2021/08/29 07:10:24;;;;;;;9.00;4.30;;;16.60;99.90;;;;;;4992304;28;20474;-88
2021/08/29 07:12:51;;;;;;;11.03;5.93;;;16.60;99.90;;;;;;5006358;28;20472;-87
2021/08/29 07:15:18;;;;;;;7.43;5.23;;;16.60;99.90;;;;;;4988968;28;20452;-88
2021/08/29 07:17:45;;;;;;;8.80;4.83;;;16.60;99.90;;;;;;4977235;28;20494;-89
2021/08/29 07:20:12;;;;;;;8.60;3.83;;;16.60;99.90;;;;;;4998985;28;20499;-87
2021/08/29 07:22:39;;;;;;;6.83;5.17;;;16.60;99.90;;;;;;4996447;28;20467;-88
2021/08/29 07:25:06;;;;;;;7.60;4.70;;;16.70;99.90;;;;;;5006821;28;20508;-87
2021/08/29 07:27:33;;;;;;;6.37;4.97;;;16.60;99.90;;;;;;4981945;28;20492;-87
2021/08/29 07:30:00;;;;;;;6.80;5.17;;;16.60;99.90;;;;;;5013794;28;20516;-88
2021/08/29 07:32:26;;;;;;;6.60;4.70;;;16.60;99.90;;;;;;4993359;28;20487;-86
2021/08/29 07:34:54;;;;;;;8.70;5.33;;;16.70;99.90;;;;;;5014392;28;20510;-88
2021/08/29 07:37:22;;;;;;;5.30;4.80;;;16.60;99.90;;;;;;4977036;28;20494;-87
2021/08/29 07:39:50;;;;;;;8.03;5.27;;;16.70;99.90;;;;;;4996127;28;20455;-88
2021/08/29 07:42:17;;;;;;;7.30;5.40;;;16.70;99.90;;;;;;5004006;28;20460;-87
2021/08/29 07:44:43;;;;;;;7.00;4.87;;;16.80;99.90;;;;;;4993566;28;20449;-90
2021/08/29 07:47:10;;;;;;;8.30;5.03;;;16.80;99.90;;;;;;4992717;28;20555;-88
2021/08/29 07:49:37;;;;;;;8.90;5.43;;;16.90;99.90;;;;;;5001309;28;20444;-87
2021/08/29 07:52:04;;;;;;;7.30;5.77;;;16.90;99.90;;;;;;5010936;28;20448;-88
2021/08/29 07:54:31;;;;;;;9.47;5.40;;;17.00;99.90;;;;;;5015320;28;20490;-90
2021/08/29 07:56:57;;;;;;;7.17;5.93;;;17.00;99.90;;;;;;5012768;28;20478;-88
2021/08/29 07:59:24;;;;;;;6.83;5.47;;;17.10;99.90;;;;;;4992625;28;20436;-87
2021/08/29 08:01:51;;;;;;;8.20;6.30;;;17.20;99.90;;;;;;4998295;28;20503;-89
2021/08/29 08:04:18;;;;;;;7.43;5.77;;;17.20;99.90;;;;;;5010079;28;20460;-86
2021/08/29 08:06:44;;;;;;;9.43;5.10;;;17.30;99.90;;;;;;5009363;28;20479;-87
2021/08/29 08:09:11;;;;;;;7.70;5.00;;;17.20;99.90;;;;;;4979696;28;20516;-88
2021/08/29 08:11:38;;;;;;;7.27;4.93;;;17.30;99.90;;;;;;4998556;28;20464;-88
2021/08/29 08:14:06;;;;;;;8.93;5.00;;;17.30;99.90;;;;;;4995360;28;20455;-88
2021/08/29 08:16:33;;;;;;;7.33;4.83;;;17.40;99.90;;;;;;5012112;28;20577;-87
2021/08/29 08:19:00;;;;;;;9.63;6.00;;;17.50;99.90;;;;;;4996568;28;20478;-87
2021/08/29 08:21:27;;;;;;;5.90;4.60;;;17.50;99.90;;;;;;5001644;28;20470;-86
2021/08/29 08:23:53;;;;;;;7.83;4.93;;;17.50;99.90;;;;;;4998822;28;20456;-89
2021/08/29 08:26:20;;;;;;;6.67;4.60;;;17.50;99.90;;;;;;5000043;28;20501;-87
2021/08/29 08:28:47;;;;;;;7.60;4.50;;;17.60;99.90;;;;;;5013627;28;20538;-88
2021/08/29 08:31:14;;;;;;;6.50;4.30;;;17.50;99.90;;;;;;4997288;28;20444;-88
2021/08/29 08:33:42;;;;;;;5.87;4.60;;;17.50;99.90;;;;;;4994724;28;20540;-87
2021/08/29 08:36:09;;;;;;;7.87;4.60;;;17.50;99.90;;;;;;4988450;28;20542;-88
2021/08/29 08:38:36;;;;;;;6.90;5.03;;;17.60;99.90;;;;;;4983000;28;20494;-89
2021/08/29 08:41:02;;;;;;;6.63;4.40;;;17.50;99.90;;;;;;4991312;28;20458;-88
2021/08/29 08:43:30;;;;;;;6.53;4.30;;;17.50;99.90;;;;;;4994276;28;20475;-88
2021/08/29 08:45:58;;;;;;;6.67;4.07;;;17.40;99.90;;;;;;5002367;28;20479;-86
2021/08/29 08:48:26;;;;;;;9.00;4.67;;;17.40;99.90;;;;;;5002264;28;20517;-89
2021/08/29 08:50:54;;;;;;;6.83;3.87;;;17.30;99.90;;;;;;4993459;28;20470;-89
2021/08/29 08:53:24;;;;;;;6.43;3.63;;;17.30;99.90;;;;;;4991387;28;20440;-89
2021/08/29 08:55:52;;;;;;;5.50;4.60;;;17.30;99.90;;;;;;4992309;28;20511;-89
2021/08/29 08:58:19;;;;;;;6.30;4.10;;;17.30;99.90;;;;;;5007014;28;20463;-86
2021/08/29 09:00:46;;;;;;;8.30;4.40;;;17.30;99.90;;;;;;4994973;28;20455;-88
2021/08/29 09:03:15;;;;;;;9.00;5.73;;;17.20;99.90;;;;;;5009425;28;20477;-88
2021/08/29 09:05:42;;;;;;;5.93;3.90;;;17.20;99.90;;;;;;4993651;28;20463;-88
2021/08/29 09:08:09;;;;;;;8.47;4.73;;;17.20;99.90;;;;;;4993404;28;20478;-87
2021/08/29 09:10:36;;;;;;;6.77;4.70;;;17.20;99.90;;;;;;4994038;28;20474;-88
2021/08/29 09:13:04;;;;;;;7.03;4.20;;;17.20;99.90;;;;;;5011087;28;20471;-88
2021/08/29 09:15:32;;;;;;;7.87;4.87;;;17.20;99.90;;;;;;4993914;28;20455;-88
2021/08/29 09:18:01;;;;;;;9.40;4.90;;;17.20;99.90;;;;;;4991641;28;20478;-89
2021/08/29 09:20:36;;;;;;;15.93;13.30;;;17.20;99.90;;;;;;4992105;28;20447;-86
2021/08/29 09:23:08;;;;;;;18.73;16.70;;;17.10;99.90;;;;;;5006762;28;20490;-87
2021/08/29 09:25:45;;;;;;;14.53;12.30;;;17.10;99.90;;;;;;5007570;28;22158;-88
2021/08/29 09:28:16;;;;;;;14.50;12.87;;;17.10;99.90;;;;;;4978185;28;20457;-89
2021/08/29 09:30:46;;;;;;;16.13;13.33;;;17.20;99.90;;;;;;5008546;28;20455;-88
2021/08/29 09:33:15;;;;;;;9.57;8.57;;;17.20;99.90;;;;;;5006337;28;20506;-87
2021/08/29 09:35:42;;;;;;;7.70;7.07;;;17.20;99.90;;;;;;4981138;28;20452;-88
2021/08/29 09:38:16;;;;;;;6.17;5.57;;;17.10;99.90;;;;;;4982843;28;20471;-88
2021/08/29 09:40:43;;;;;;;6.87;5.63;;;17.10;99.90;;;;;;4992532;28;20487;-88
2021/08/29 09:43:10;;;;;;;5.50;4.20;;;17.10;99.90;;;;;;5007503;28;20454;-87
2021/08/29 09:45:45;;;;;;;5.93;3.93;;;17.10;99.90;;;;;;4991755;28;20545;-89
2021/08/29 09:48:15;;;;;;;4.40;4.00;;;16.90;99.90;;;;;;5000342;28;20562;-87
2021/08/29 09:50:45;;;;;;;3.80;3.17;;;17.00;99.90;;;;;;5001793;28;20477;-89
2021/08/29 09:53:19;;;;;;;6.47;3.33;;;16.90;99.90;;;;;;4995241;28;20448;-85
2021/08/29 09:55:48;;;;;;;4.20;3.03;;;17.10;99.90;;;;;;4988217;28;20520;-88
2021/08/29 09:58:24;;;;;;;3.07;2.77;;;17.10;99.90;;;;;;4993865;28;20456;-87
2021/08/29 10:01:13;;;;;;;3.93;3.03;;;17.10;99.90;;;;;;5004742;28;20451;-88
2021/08/29 10:03:48;;;;;;;4.00;2.93;;;17.30;99.90;;;;;;4979215;28;20471;-88
2021/08/29 10:06:30;;;;;;;6.10;4.10;;;17.40;99.90;;;;;;4985127;28;20507;-89
2021/08/29 10:08:59;;;;;;;3.47;3.00;;;17.40;99.90;;;;;;4995744;28;20451;-87
2021/08/29 10:11:28;;;;;;;8.13;3.40;;;17.30;99.90;;;;;;5006633;28;20475;-89
2021/08/29 10:13:57;;;;;;;5.03;3.40;;;17.30;99.90;;;;;;5005570;28;20462;-87
2021/08/29 10:16:26;;;;;;;3.43;3.13;;;17.20;99.90;;;;;;4997894;28;20484;-88
2021/08/29 10:18:55;;;;;;;4.33;3.13;;;17.20;99.90;;;;;;4981951;28;20526;-87
2021/08/29 10:21:25;;;;;;;6.60;3.03;;;17.20;99.90;;;;;;5005205;28;20462;-86
2021/08/29 10:23:54;;;;;;;3.10;2.80;;;17.20;99.90;;;;;;4987177;28;20444;-87
2021/08/29 10:26:22;;;;;;;4.80;3.57;;;17.10;99.90;;;;;;4991196;28;20495;-86
2021/08/29 10:28:58;;;;;;;3.40;3.10;;;17.10;99.90;;;;;;4988857;28;20451;-88
2021/08/29 10:31:56;;;;;;;5.60;3.47;;;17.10;99.90;;;;;;5007833;28;20545;-89
2021/08/29 10:34:28;;;;;;;6.43;3.60;;;17.10;99.90;;;;;;5007540;28;20465;-90
2021/08/29 10:36:56;;;;;;;4.13;3.37;;;17.10;99.90;;;;;;4991872;28;20463;-90
2021/08/29 10:39:23;;;;;;;4.97;3.30;;;17.00;99.90;;;;;;4991357;28;20522;-89
2021/08/29 10:41:53;;;;;;;4.73;3.60;;;17.00;99.90;;;;;;4989040;28;20479;-88
2021/08/29 10:44:24;;;;;;;5.00;3.37;;;17.00;99.90;;;;;;4989611;28;21057;-87
2021/08/29 10:46:53;;;;;;;7.03;3.80;;;17.10;99.90;;;;;;5005702;28;20488;-86
2021/08/29 10:49:22;;;;;;;4.07;3.40;;;17.10;99.90;;;;;;4993002;28;20446;-86
2021/08/29 10:51:52;;;;;;;4.77;3.70;;;17.20;99.90;;;;;;4991507;28;20463;-89
2021/08/29 10:54:19;;;;;;;3.63;2.90;;;17.20;99.90;;;;;;4978197;28;20474;-87
2021/08/29 10:56:46;;;;;;;5.77;2.53;;;17.20;99.90;;;;;;4995570;28;20821;-86
2021/08/29 10:59:24;;;;;;;4.43;2.90;;;17.30;99.90;;;;;;4994505;28;20431;-89
2021/08/29 11:01:54;;;;;;;2.70;2.50;;;17.30;99.90;;;;;;4990021;28;20554;-88
2021/08/29 11:04:21;;;;;;;5.60;3.10;;;17.30;99.90;;;;;;5005406;28;20439;-87
2021/08/29 11:06:57;;;;;;;3.97;3.57;;;17.30;99.90;;;;;;5010666;28;20486;-87
2021/08/29 11:09:37;;;;;;;5.37;2.63;;;17.20;99.90;;;;;;4994816;28;20497;-87
2021/08/29 11:12:13;;;;;;;2.53;2.20;;;17.20;99.90;;;;;;5010161;28;20459;-87
2021/08/29 11:14:44;;;;;;;2.70;2.23;;;17.20;99.90;;;;;;5013459;28;20442;-86
2021/08/29 11:17:13;;;;;;;3.20;2.20;;;17.30;99.90;;;;;;5001781;28;20562;-88
2021/08/29 11:19:42;;;;;;;3.40;2.30;;;17.20;99.90;;;;;;5009822;28;20451;-87
2021/08/29 11:22:09;;;;;;;2.17;1.60;;;17.20;99.90;;;;;;5014533;28;20443;-90
2021/08/29 11:25:02;;;;;;;2.00;1.80;;;17.20;99.90;;;;;;5002025;28;20462;-88
2021/08/29 11:27:36;;;;;;;2.77;2.10;;;17.10;99.90;;;;;;5018000;28;20477;-89
2021/08/29 11:30:26;;;;;;;1.73;1.63;;;17.10;99.90;;;;;;5002018;28;20466;-90
2021/08/29 11:33:04;;;;;;;1.70;1.60;;;17.20;99.90;;;;;;4999466;28;20494;-86
2021/08/29 11:35:52;;;;;;;2.33;2.00;;;17.10;99.90;;;;;;4981227;28;20464;-86
2021/08/29 11:38:32;;;;;;;2.07;1.60;;;17.10;99.90;;;;;;5011953;28;20446;-87
2021/08/29 11:41:14;;;;;;;2.70;2.23;;;17.20;99.90;;;;;;5012192;28;20431;-86
2021/08/29 11:43:49;;;;;;;2.70;1.60;;;17.30;99.90;;;;;;4997995;28;20502;-85
2021/08/29 11:46:22;;;;;;;2.60;2.40;;;17.30;99.90;;;;;;4998967;28;20485;-88
2021/08/29 11:48:59;;;;;;;3.43;1.70;;;17.30;99.90;;;;;;4969914;28;21005;-86
2021/08/29 11:51:31;;;;;;;5.67;3.87;;;17.40;99.90;;;;;;4984713;28;21015;-85
2021/08/29 11:54:00;;;;;;;3.10;2.30;;;17.40;99.90;;;;;;4990385;28;20470;-86
2021/08/29 11:56:29;;;;;;;4.33;1.80;;;17.40;99.90;;;;;;4996958;28;20499;-86
2021/08/29 11:59:00;;;;;;;2.60;1.50;;;17.50;99.90;;;;;;4970909;28;20466;-85
2021/08/29 12:01:43;;;;;;;2.47;2.30;;;17.50;99.90;;;;;;5001536;28;20484;-88
2021/08/29 12:04:21;;;;;;;3.47;2.07;;;17.60;99.90;;;;;;5001070;28;20443;-86
2021/08/29 12:07:08;;;;;;;2.67;2.17;;;17.60;99.90;;;;;;4978551;28;20491;-86
2021/08/29 12:09:42;;;;;;;1.60;1.50;;;17.60;99.90;;;;;;4985042;28;20519;-85
2021/08/29 12:12:16;;;;;;;1.87;1.77;;;17.60;99.90;;;;;;4996424;28;20464;-86
2021/08/29 12:14:44;;;;;;;3.30;1.80;;;17.50;99.90;;;;;;4999582;28;20554;-87
2021/08/29 12:17:18;;;;;;;1.60;1.50;;;17.50;99.90;;;;;;4987787;28;20608;-86
2021/08/29 12:19:51;;;;;;;2.27;1.80;;;17.60;99.90;;;;;;4982783;28;20454;-84
2021/08/29 12:22:18;;;;;;;1.50;1.40;;;17.50;99.90;;;;;;4982042;28;20466;-84
2021/08/29 12:24:47;;;;;;;1.90;1.60;;;17.50;99.90;;;;;;4982290;28;20436;-88
2021/08/29 12:27:18;;;;;;;3.87;1.60;;;17.60;99.90;;;;;;4998883;28;20502;-88
2021/08/29 12:29:50;;;;;;;1.80;1.50;;;17.60;99.90;;;;;;4995028;28;20454;-85
2021/08/29 12:32:35;;;;;;;1.87;1.73;;;17.60;99.90;;;;;;4989159;28;22035;-88
2021/08/29 12:35:10;;;;;;;1.57;1.47;;;17.60;99.90;;;;;;4996529;28;20458;-85
2021/08/29 12:37:46;;;;;;;2.00;1.37;;;17.60;99.90;;;;;;4998920;28;20507;-88
2021/08/29 12:40:17;;;;;;;1.60;1.50;;;17.50;99.90;;;;;;4982527;28;20463;-86
2021/08/29 12:42:47;;;;;;;2.10;1.87;;;17.50;99.90;;;;;;4992369;28;20470;-87
2021/08/29 12:45:16;;;;;;;3.40;1.80;;;17.50;99.90;;;;;;4993984;28;20451;-86
2021/08/29 12:47:47;;;;;;;2.40;1.90;;;17.60;99.90;;;;;;4981138;28;20497;-86
2021/08/29 12:50:22;;;;;;;1.60;1.50;;;17.60;99.90;;;;;;4991857;28;20451;-87
2021/08/29 12:52:58;;;;;;;2.33;1.70;;;17.70;99.90;;;;;;5003446;28;20458;-88
2021/08/29 12:55:29;;;;;;;2.00;1.80;;;17.70;99.90;;;;;;5005153;28;20451;-86